Time;durP1;ratioP1;P1;durP2;ratioP2;P2;SDS_P1;SDS_P2;PMS_P1;PMS_P2;Temp;Humidity;BMP_temperature;BMP_pressure;BME280_temperature;BME280_humidity;BME280_pressure;Samples;Min_cycle;Max_cycle;Signal;HPM_P1;HPM_P2
2022/08/25 00:00:00;;;;;;;5.78;2.72;;;22.10;99.60;;;;;;5154632;27;20074;-50
2022/08/25 00:02:25;;;;;;;4.63;2.60;;;22.00;99.60;;;;;;5154580;27;20496;-46
2022/08/25 00:04:51;;;;;;;5.60;2.92;;;22.00;99.60;;;;;;5155060;27;20045;-48
2022/08/25 00:07:17;;;;;;;6.25;2.55;;;21.90;99.70;;;;;;5154724;27;20098;-46
2022/08/25 00:09:42;;;;;;;3.35;2.80;;;21.90;99.70;;;;;;5154756;27;20504;-48
2022/08/25 00:12:08;;;;;;;4.63;2.75;;;21.80;99.70;;;;;;5154678;27;20522;-48
2022/08/25 00:14:36;;;;;;;4.10;3.00;;;21.80;99.60;;;;;;5154578;27;20038;-48
2022/08/25 00:17:01;;;;;;;3.28;2.78;;;21.70;99.80;;;;;;5154843;27;20043;-48
2022/08/25 00:19:31;;;;;;;3.92;3.00;;;21.70;99.90;;;;;;5154003;27;20492;-44
2022/08/25 00:21:57;;;;;;;4.82;3.05;;;21.70;99.80;;;;;;5154636;27;20071;-44
2022/08/25 00:24:23;;;;;;;3.97;3.00;;;21.60;99.80;;;;;;5154661;27;20081;-45
2022/08/25 00:26:53;;;;;;;5.57;3.20;;;21.60;99.80;;;;;;5154517;27;20046;-46
2022/08/25 00:29:20;;;;;;;4.18;2.45;;;21.60;99.60;;;;;;5154554;27;20283;-46
2022/08/25 00:31:47;;;;;;;4.45;3.20;;;21.60;99.60;;;;;;5136164;27;20035;-50
2022/08/25 00:34:17;;;;;;;5.85;2.70;;;21.50;99.60;;;;;;5154535;27;20050;-46
2022/08/25 00:36:43;;;;;;;3.00;2.47;;;21.50;99.50;;;;;;5154852;27;20070;-49
2022/08/25 00:39:09;;;;;;;6.43;3.15;;;21.50;99.40;;;;;;5154359;27;20060;-45
2022/08/25 00:41:37;;;;;;;4.65;2.83;;;21.50;99.30;;;;;;5135425;27;20077;-45
2022/08/25 00:44:04;;;;;;;;;;;21.40;99.30;;;;;;5154703;27;20412;-47
2022/08/25 00:46:31;;;;;;;;;;;21.40;99.30;;;;;;5154668;27;20329;-48
2022/08/25 00:49:02;;;;;;;;;;;21.40;99.30;;;;;;5154749;27;20273;-47
2022/08/25 00:51:36;;;;;;;9.02;2.80;;;21.30;99.20;;;;;;5154302;27;19919;-46
2022/08/25 00:54:04;;;;;;;5.88;2.30;;;21.30;99.10;;;;;;5154132;27;20078;-46
2022/08/25 00:56:30;;;;;;;5.05;2.40;;;21.20;99.10;;;;;;5154348;27;20054;-47
2022/08/25 00:58:58;;;;;;;3.55;2.60;;;21.20;99.00;;;;;;5154258;27;20049;-48
2022/08/25 01:01:25;;;;;;;6.82;2.40;;;21.20;98.90;;;;;;5154041;27;20039;-49
2022/08/25 01:03:51;;;;;;;5.38;2.55;;;21.20;98.80;;;;;;5154217;27;20047;-46
2022/08/25 01:06:16;;;;;;;4.35;2.50;;;21.20;98.80;;;;;;5118495;27;20039;-46
2022/08/25 01:08:42;;;;;;;6.03;2.67;;;21.20;98.90;;;;;;5153910;27;20042;-50
2022/08/25 01:11:09;;;;;;;4.22;2.40;;;21.10;98.90;;;;;;5154191;27;20399;-49
2022/08/25 01:13:44;;;;;;;6.88;2.65;;;21.10;98.90;;;;;;5153963;27;20492;-45
2022/08/25 01:16:11;;;;;;;4.45;2.60;;;21.10;99.10;;;;;;5135898;27;20043;-47
2022/08/25 01:18:44;;;;;;;;;;;21.00;99.00;;;;;;5154522;27;20114;-45
2022/08/25 01:21:10;;;;;;;4.18;2.50;;;21.00;99.00;;;;;;5153969;27;19942;-45
2022/08/25 01:23:36;;;;;;;4.15;2.30;;;20.90;98.90;;;;;;5154199;27;20473;-48
2022/08/25 01:26:15;;;;;;;3.22;2.20;;;20.90;99.00;;;;;;5153993;27;20524;-45
2022/08/25 01:29:19;;;;;;;7.55;2.50;;;20.80;99.00;;;;;;5153964;27;20053;-47
2022/08/25 01:31:29;;;;;;;5.70;2.28;;;20.90;99.10;;;;;;5157187;27;20103;-51
2022/08/25 01:33:56;;;;;;;2.88;2.22;;;20.80;99.00;;;;;;5157724;27;20093;-46
2022/08/25 01:36:23;;;;;;;3.25;2.40;;;20.80;99.00;;;;;;5157572;27;20035;-49
2022/08/25 01:38:49;;;;;;;4.50;2.50;;;20.70;98.90;;;;;;5157892;27;20042;-47
2022/08/25 01:41:30;;;;;;;4.32;2.33;;;20.70;99.00;;;;;;5157033;27;20181;-46
2022/08/25 01:43:56;;;;;;;7.70;2.88;;;20.70;99.00;;;;;;5157291;27;20091;-46
2022/08/25 01:46:22;;;;;;;4.07;2.60;;;20.70;99.10;;;;;;5157442;27;20038;-46
2022/08/25 01:48:47;;;;;;;4.95;2.55;;;20.70;99.10;;;;;;5138770;27;20047;-46
2022/08/25 01:51:19;;;;;;;4.22;2.65;;;20.70;99.00;;;;;;5157383;27;20060;-48
2022/08/25 01:53:45;;;;;;;5.68;2.53;;;20.60;99.30;;;;;;5157153;27;20061;-46
2022/08/25 01:56:14;;;;;;;7.13;2.80;;;20.60;99.00;;;;;;5157073;27;20392;-46
2022/08/25 01:58:42;;;;;;;6.10;2.47;;;20.60;99.10;;;;;;5156956;27;20039;-48
2022/08/25 02:01:14;;;;;;;3.70;2.63;;;20.60;99.10;;;;;;5157190;27;20043;-49
2022/08/25 02:03:42;;;;;;;5.55;2.55;;;20.50;99.20;;;;;;5157111;27;20444;-46
2022/08/25 02:06:11;;;;;;;2.70;2.28;;;20.50;99.30;;;;;;5157050;27;20047;-47
2022/08/25 02:08:37;;;;;;;5.88;3.28;;;20.50;99.20;;;;;;5138370;27;20082;-50
2022/08/25 02:11:03;;;;;;;5.97;3.00;;;20.50;99.20;;;;;;5156718;27;20118;-45
2022/08/25 02:13:29;;;;;;;3.30;2.58;;;20.40;99.20;;;;;;5138601;27;20039;-50
2022/08/25 02:15:56;;;;;;;6.07;2.53;;;20.50;99.10;;;;;;5156990;27;20039;-45
2022/08/25 02:18:22;;;;;;;;;;;20.40;99.20;;;;;;5157155;27;20086;-46
2022/08/25 02:20:48;;;;;;;5.97;2.88;;;20.40;99.10;;;;;;5156497;27;19926;-46
2022/08/25 02:23:14;;;;;;;5.78;2.70;;;20.40;99.10;;;;;;5157033;27;20087;-51
2022/08/25 02:25:41;;;;;;;4.43;2.92;;;20.30;99.20;;;;;;5156387;27;20039;-45
2022/08/25 02:28:07;;;;;;;5.90;2.75;;;20.30;99.10;;;;;;5156672;27;20504;-47
2022/08/25 02:30:34;;;;;;;4.13;2.65;;;20.30;99.20;;;;;;5156515;27;20061;-49
2022/08/25 02:32:59;;;;;;;4.63;3.10;;;20.30;99.20;;;;;;5156422;27;20047;-49
2022/08/25 02:35:25;;;;;;;4.10;2.85;;;20.20;99.30;;;;;;5156326;27;20087;-49
2022/08/25 02:37:52;;;;;;;5.55;3.00;;;20.20;99.50;;;;;;5156325;27;20477;-46
2022/08/25 02:40:20;;;;;;;4.97;2.67;;;20.20;99.50;;;;;;5137230;27;20452;-47
2022/08/25 02:42:46;;;;;;;6.63;2.90;;;20.10;99.50;;;;;;5155500;27;20043;-45
2022/08/25 02:45:12;;;;;;;3.33;2.50;;;20.10;99.60;;;;;;5156268;27;20042;-49
2022/08/25 02:47:39;;;;;;;3.75;2.78;;;20.00;99.50;;;;;;5156379;27;20118;-47
2022/08/25 02:50:05;;;;;;;6.43;3.17;;;20.00;99.60;;;;;;5156139;27;20095;-47
2022/08/25 02:52:31;;;;;;;4.70;2.83;;;20.00;99.80;;;;;;5155934;27;20565;-46
2022/08/25 02:54:58;;;;;;;4.97;2.80;;;19.90;99.80;;;;;;5155825;27;20043;-45
2022/08/25 02:57:23;;;;;;;5.97;2.80;;;19.90;99.80;;;;;;5156023;27;20374;-47
2022/08/25 02:59:50;;;;;;;5.75;2.80;;;19.90;99.80;;;;;;5155992;27;20113;-45
2022/08/25 03:02:16;;;;;;;3.13;2.37;;;19.90;99.90;;;;;;5155871;27;20160;-45
2022/08/25 03:04:42;;;;;;;4.80;3.17;;;19.80;99.90;;;;;;5155727;27;20113;-48
2022/08/25 03:07:09;;;;;;;5.40;3.08;;;19.80;99.90;;;;;;5155899;27;20159;-51
2022/08/25 03:09:35;;;;;;;3.88;2.65;;;19.80;99.90;;;;;;5137118;27;20051;-47
2022/08/25 03:12:01;;;;;;;5.78;2.90;;;19.70;99.90;;;;;;5155428;27;20039;-47
2022/08/25 03:14:27;;;;;;;8.57;3.03;;;19.70;99.90;;;;;;5155647;27;20519;-45
2022/08/25 03:16:52;;;;;;;6.93;2.90;;;19.70;99.90;;;;;;5155991;27;20459;-47
2022/08/25 03:19:18;;;;;;;2.88;2.67;;;19.60;99.90;;;;;;5155742;27;20503;-48
2022/08/25 03:21:44;;;;;;;3.38;2.72;;;19.60;99.90;;;;;;5155396;27;20041;-45
2022/08/25 03:24:11;;;;;;;3.47;2.78;;;19.60;99.90;;;;;;5155230;27;20050;-45
2022/08/25 03:26:52;;;;;;;7.70;3.25;;;19.50;99.90;;;;;;5155423;27;20042;-46
2022/08/25 03:29:19;;;;;;;6.35;2.80;;;19.50;99.90;;;;;;5155427;27;20430;-45
2022/08/25 03:31:45;;;;;;;9.53;3.00;;;19.50;99.90;;;;;;5155752;27;20038;-46
2022/08/25 03:34:18;;;;;;;4.50;2.90;;;19.50;99.90;;;;;;5136570;27;20344;-50
2022/08/25 03:36:46;;;;;;;6.63;3.20;;;19.50;99.90;;;;;;5155470;27;20034;-47
2022/08/25 03:39:12;;;;;;;4.95;2.80;;;19.50;99.90;;;;;;5155268;27;20046;-48
2022/08/25 03:41:38;;;;;;;7.55;3.10;;;19.40;99.90;;;;;;5136225;27;20095;-49
2022/08/25 03:44:05;;;;;;;7.85;3.40;;;19.50;99.90;;;;;;5155151;27;20058;-46
2022/08/25 03:46:35;;;;;;;5.30;3.35;;;19.40;99.90;;;;;;5155056;27;20095;-49
2022/08/25 03:49:03;;;;;;;7.10;3.17;;;19.40;99.90;;;;;;5154953;27;20200;-49
2022/08/25 03:51:35;;;;;;;3.70;2.90;;;19.40;99.90;;;;;;5136459;27;20053;-48
2022/08/25 03:54:02;;;;;;;10.90;3.15;;;19.40;99.90;;;;;;5154107;27;20171;-47
2022/08/25 03:56:28;;;;;;;6.97;3.30;;;19.40;99.90;;;;;;5154972;27;20039;-46
2022/08/25 03:58:54;;;;;;;6.05;3.15;;;19.40;99.90;;;;;;5154953;27;20046;-46
2022/08/25 04:01:20;;;;;;;5.25;3.20;;;19.40;99.90;;;;;;5154779;27;20042;-47
2022/08/25 04:03:46;;;;;;;5.47;3.10;;;19.30;99.90;;;;;;5154681;27;20403;-47
2022/08/25 04:06:13;;;;;;;3.90;3.50;;;19.30;99.90;;;;;;5136492;27;20087;-45
2022/08/25 04:08:39;;;;;;;11.68;3.38;;;19.30;99.90;;;;;;5154603;27;20484;-47
2022/08/25 04:11:14;;;;;;;6.88;3.00;;;19.20;99.90;;;;;;5136371;27;20125;-45
2022/08/25 04:13:46;;;;;;;3.42;2.83;;;19.20;99.90;;;;;;5155133;27;20095;-46
2022/08/25 04:16:15;;;;;;;4.40;3.40;;;19.20;99.90;;;;;;5154567;27;20092;-46
2022/08/25 04:18:41;;;;;;;5.70;3.05;;;19.20;99.90;;;;;;5154650;27;20045;-46
2022/08/25 04:21:08;;;;;;;3.63;2.60;;;19.20;99.90;;;;;;5154827;27;20036;-46
2022/08/25 04:23:35;;;;;;;4.00;3.00;;;19.20;99.90;;;;;;5154240;27;20046;-47
2022/08/25 04:26:07;;;;;;;6.38;3.50;;;19.20;99.90;;;;;;5154507;27;20492;-45
2022/08/25 04:28:32;;;;;;;8.30;3.00;;;19.20;99.90;;;;;;5154557;27;20536;-46
2022/08/25 04:30:58;;;;;;;5.15;3.33;;;19.10;99.90;;;;;;5154505;27;20051;-47
2022/08/25 04:33:23;;;;;;;5.88;3.28;;;19.10;99.90;;;;;;5154634;27;20484;-46
2022/08/25 04:35:49;;;;;;;5.25;3.03;;;19.10;99.90;;;;;;5154385;27;20080;-45
2022/08/25 04:38:14;;;;;;;7.35;3.17;;;19.10;99.90;;;;;;5154438;27;20038;-46
2022/08/25 04:40:40;;;;;;;5.68;2.88;;;19.10;99.90;;;;;;5153927;27;20047;-49
2022/08/25 04:43:06;;;;;;;4.70;3.00;;;19.10;99.90;;;;;;5154189;27;20049;-46
2022/08/25 04:45:36;;;;;;;5.43;3.15;;;19.10;99.90;;;;;;5154480;27;20042;-46
2022/08/25 04:48:02;;;;;;;5.55;3.08;;;19.10;99.90;;;;;;5135828;27;20045;-49
2022/08/25 04:50:28;;;;;;;4.30;3.00;;;19.10;99.90;;;;;;5154419;27;20399;-50
2022/08/25 04:52:54;;;;;;;5.97;3.30;;;19.00;99.90;;;;;;5135625;27;20043;-49
2022/08/25 04:55:19;;;;;;;8.20;3.30;;;19.10;99.90;;;;;;5154377;27;20050;-46
2022/08/25 04:57:45;;;;;;;4.78;3.40;;;19.10;99.90;;;;;;5154197;27;20373;-49
2022/08/25 05:00:11;;;;;;;3.20;2.90;;;19.10;99.90;;;;;;5154308;27;20067;-46
2022/08/25 05:02:36;;;;;;;7.43;3.63;;;19.10;99.90;;;;;;5154244;27;20093;-50
2022/08/25 05:05:03;;;;;;;5.68;3.35;;;19.20;99.90;;;;;;5155737;27;20516;-47
2022/08/25 05:07:29;;;;;;;6.40;2.88;;;19.20;99.90;;;;;;5158211;27;20095;-49
2022/08/25 05:09:54;;;;;;;4.15;3.13;;;19.20;99.90;;;;;;5157945;27;20035;-46
2022/08/25 05:12:20;;;;;;;5.30;3.00;;;19.20;99.90;;;;;;5158010;27;20039;-50
2022/08/25 05:14:45;;;;;;;7.43;3.17;;;19.20;99.90;;;;;;5158054;27;20528;-47
2022/08/25 05:17:11;;;;;;;6.97;3.25;;;19.30;99.90;;;;;;5158246;27;20038;-50
2022/08/25 05:19:37;;;;;;;7.07;3.47;;;19.30;99.90;;;;;;5139520;27;20042;-50
2022/08/25 05:22:02;;;;;;;7.05;3.30;;;19.30;99.90;;;;;;5157910;27;20484;-48
2022/08/25 05:24:28;;;;;;;6.45;3.60;;;19.40;99.90;;;;;;5157694;27;20037;-46
2022/08/25 05:26:54;;;;;;;4.30;3.17;;;19.30;99.90;;;;;;5157802;27;20103;-45
2022/08/25 05:29:20;;;;;;;11.40;3.72;;;19.40;99.90;;;;;;5139369;27;20050;-46
2022/08/25 05:31:46;;;;;;;4.30;3.47;;;19.40;99.90;;;;;;5157791;27;20051;-49
2022/08/25 05:34:11;;;;;;;6.90;3.47;;;19.40;99.90;;;;;;5157651;27;20460;-46
2022/08/25 05:36:41;;;;;;;4.90;3.47;;;19.40;99.90;;;;;;5157471;27;20388;-46
2022/08/25 05:39:07;;;;;;;7.07;3.33;;;19.50;99.90;;;;;;5157425;27;20464;-51
2022/08/25 05:41:33;;;;;;;10.40;3.60;;;19.50;99.90;;;;;;5138669;27;20039;-47
2022/08/25 05:43:59;;;;;;;5.15;3.65;;;19.50;99.90;;;;;;5157644;27;20061;-46
2022/08/25 05:46:25;;;;;;;7.10;4.07;;;19.60;99.90;;;;;;5157473;27;20435;-47
2022/08/25 05:48:51;;;;;;;7.55;3.97;;;20.00;99.90;;;;;;5157416;27;20039;-46
2022/08/25 05:51:17;;;;;;;5.65;3.50;;;21.00;99.90;;;;;;5157454;27;20399;-45
2022/08/25 05:53:47;;;;;;;9.10;3.63;;;21.80;99.90;;;;;;5157198;27;20035;-47
2022/08/25 05:56:13;;;;;;;8.23;3.55;;;22.70;98.80;;;;;;5156994;27;20047;-46
2022/08/25 05:58:40;;;;;;;4.45;3.70;;;23.50;98.30;;;;;;5157302;27;20398;-50
2022/08/25 06:03:53;;;;;;;4.88;3.42;;;24.50;96.70;;;;;;5157159;27;20039;-48
2022/08/25 06:06:21;;;;;;;4.85;3.15;;;24.60;95.20;;;;;;5156929;27;20045;-46
2022/08/25 06:08:46;;;;;;;;;;;25.20;95.30;;;;;;5157551;27;20038;-48
2022/08/25 06:11:12;;;;;;;4.38;3.28;;;25.60;95.30;;;;;;5156993;27;20433;-47
2022/08/25 06:13:39;;;;;;;7.35;3.33;;;25.70;94.00;;;;;;5138395;27;20092;-46
2022/08/25 06:16:05;;;;;;;6.32;3.50;;;25.90;93.20;;;;;;5155809;27;20045;-48
2022/08/25 06:18:31;;;;;;;5.93;3.40;;;25.90;92.70;;;;;;5156897;27;20104;-46
2022/08/25 06:20:56;;;;;;;5.35;3.30;;;26.60;93.30;;;;;;5137994;27;20473;-47
2022/08/25 06:23:22;;;;;;;5.25;3.45;;;26.50;92.50;;;;;;5156832;27;20126;-51
2022/08/25 06:25:53;;;;;;;5.20;3.30;;;26.50;92.30;;;;;;5156680;27;20046;-50
2022/08/25 06:28:19;;;;;;;4.90;2.85;;;26.80;91.80;;;;;;5156664;27;20479;-46
2022/08/25 06:30:46;;;;;;;4.70;2.90;;;27.10;92.20;;;;;;5156569;27;20030;-46
2022/08/25 06:33:11;;;;;;;13.00;3.50;;;27.40;91.50;;;;;;5156366;27;20070;-45
2022/08/25 06:35:41;;;;;;;7.47;3.75;;;27.40;91.40;;;;;;5156311;27;20097;-46
2022/08/25 06:38:06;;;;;;;4.47;3.00;;;27.60;90.90;;;;;;5156597;27;20099;-47
2022/08/25 06:40:32;;;;;;;4.03;3.40;;;27.60;90.30;;;;;;5156017;27;20054;-48
2022/08/25 06:42:58;;;;;;;4.55;3.30;;;27.70;90.60;;;;;;5156184;27;20129;-48
2022/08/25 06:45:24;;;;;;;4.20;2.92;;;27.70;90.80;;;;;;5156340;27;20054;-46
2022/08/25 06:47:51;;;;;;;7.18;3.47;;;28.30;91.30;;;;;;5156217;27;20066;-47
2022/08/25 06:50:17;;;;;;;5.78;3.08;;;28.60;91.10;;;;;;5155972;27;20070;-47
2022/08/25 06:52:42;;;;;;;5.63;3.08;;;29.00;90.40;;;;;;5155919;27;20043;-47
2022/08/25 06:55:09;;;;;;;3.10;2.80;;;28.70;90.00;;;;;;5156029;27;20043;-48
2022/08/25 06:57:34;;;;;;;3.80;3.28;;;28.90;87.90;;;;;;5137546;27;20054;-51
2022/08/25 07:00:02;;;;;;;6.45;3.55;;;28.60;88.90;;;;;;5155876;27;20049;-46
2022/08/25 07:02:28;;;;;;;7.50;3.10;;;28.60;87.90;;;;;;5155671;27;20498;-50
2022/08/25 07:04:53;;;;;;;4.53;3.00;;;29.00;89.40;;;;;;5155618;27;20113;-51
2022/08/25 07:07:20;;;;;;;5.28;3.22;;;28.90;88.50;;;;;;5155860;27;20525;-50
2022/08/25 07:09:45;;;;;;;4.38;2.97;;;28.50;88.20;;;;;;5156049;27;20039;-51
2022/08/25 07:12:11;;;;;;;4.85;3.17;;;28.40;88.00;;;;;;5155890;27;20059;-50
2022/08/25 07:14:36;;;;;;;4.25;2.75;;;28.70;88.40;;;;;;5155657;27;20508;-51
2022/08/25 07:17:02;;;;;;;5.85;2.60;;;28.80;89.10;;;;;;5155409;27;20047;-51
2022/08/25 07:19:28;;;;;;;6.75;2.83;;;29.10;88.40;;;;;;5155436;27;20038;-45
2022/08/25 07:21:54;;;;;;;3.28;2.80;;;29.20;88.20;;;;;;5155561;27;20077;-47
2022/08/25 07:24:21;;;;;;;7.20;2.88;;;28.80;86.50;;;;;;5155524;27;20070;-46
2022/08/25 07:26:47;;;;;;;4.35;3.20;;;28.60;88.60;;;;;;5155446;27;20046;-51
2022/08/25 07:29:27;;;;;;;6.40;2.70;;;27.90;87.70;;;;;;5155067;27;20045;-49
2022/08/25 07:31:53;;;;;;;7.57;3.05;;;27.00;89.30;;;;;;5155210;27;20046;-49
2022/08/25 07:37:03;;;;;;;6.22;2.97;;;26.60;90.90;;;;;;5155343;27;20050;-49
2022/08/25 07:39:30;;;;;;;7.70;3.15;;;26.40;91.50;;;;;;5136822;27;20037;-48
2022/08/25 07:41:56;;;;;;;4.45;2.85;;;26.20;91.90;;;;;;5154790;27;20050;-46
2022/08/25 07:44:23;;;;;;;6.07;3.10;;;26.00;92.10;;;;;;5155116;27;20035;-48
2022/08/25 07:46:50;;;;;;;6.80;3.08;;;25.80;92.30;;;;;;5155438;27;20349;-47
2022/08/25 07:49:17;;;;;;;4.57;3.08;;;26.00;92.50;;;;;;5155323;27;20043;-48
2022/08/25 07:51:44;;;;;;;9.85;3.58;;;26.00;92.80;;;;;;5155431;27;20054;-48
2022/08/25 07:54:09;;;;;;;4.93;3.10;;;26.00;92.80;;;;;;5154830;27;20491;-45
2022/08/25 07:56:35;;;;;;;4.70;3.20;;;25.90;93.10;;;;;;5154910;27;20049;-49
2022/08/25 07:59:01;;;;;;;5.05;3.00;;;25.90;93.20;;;;;;5154754;27;20042;-48
2022/08/25 08:01:26;;;;;;;5.55;2.88;;;26.20;93.50;;;;;;5154613;27;20043;-46
2022/08/25 08:03:52;;;;;;;7.35;2.78;;;26.10;93.80;;;;;;5154942;27;20035;-46
2022/08/25 08:06:21;;;;;;;5.32;2.75;;;26.30;93.60;;;;;;5154839;27;20046;-46
2022/08/25 08:08:48;;;;;;;7.40;3.20;;;26.60;93.10;;;;;;5154757;27;20039;-48
2022/08/25 08:11:16;;;;;;;5.40;2.92;;;26.70;92.80;;;;;;5154795;27;20079;-47
2022/08/25 08:13:41;;;;;;;4.53;3.00;;;26.90;93.20;;;;;;5136116;27;20499;-46
2022/08/25 08:16:09;;;;;;;4.75;3.03;;;26.90;93.50;;;;;;5136266;27;20039;-48
2022/08/25 08:18:35;;;;;;;6.05;3.00;;;27.00;93.40;;;;;;5154996;27;20114;-50
2022/08/25 08:21:00;;;;;;;5.43;2.90;;;27.20;93.10;;;;;;5154588;27;20114;-48
2022/08/25 08:23:27;;;;;;;6.03;2.90;;;27.30;93.10;;;;;;5154593;27;20443;-46
2022/08/25 08:25:52;;;;;;;4.50;2.80;;;27.20;93.00;;;;;;5154607;27;20539;-49
2022/08/25 08:28:18;;;;;;;6.80;3.13;;;27.20;92.90;;;;;;5154386;27;20039;-47
2022/08/25 08:30:43;;;;;;;6.40;3.28;;;27.50;92.80;;;;;;5154647;27;20110;-47
2022/08/25 08:33:09;;;;;;;5.07;3.15;;;27.50;93.00;;;;;;5154910;27;20117;-48
2022/08/25 08:35:34;;;;;;;6.18;3.38;;;27.50;93.00;;;;;;5154426;27;20038;-48
2022/08/25 08:38:00;;;;;;;5.95;2.80;;;27.70;92.50;;;;;;5154381;27;20046;-48
2022/08/25 08:40:26;;;;;;;5.78;3.33;;;27.70;92.90;;;;;;5138090;27;20081;-51
2022/08/25 08:43:04;;;;;;;5.57;3.00;;;27.60;92.50;;;;;;5139845;27;20051;-48
2022/08/25 08:45:37;;;;;;;6.07;2.85;;;27.70;92.50;;;;;;5158589;27;20154;-48
2022/08/25 08:48:18;;;;;;;4.93;2.72;;;27.90;92.60;;;;;;5123038;27;20046;-49
2022/08/25 08:50:56;;;;;;;4.00;2.63;;;27.90;92.20;;;;;;5140083;27;20042;-48
2022/08/25 08:53:28;;;;;;;6.18;3.20;;;27.90;92.20;;;;;;5158649;27;20046;-50
2022/08/25 08:55:56;;;;;;;4.78;2.90;;;28.00;92.30;;;;;;5158660;27;20043;-47
2022/08/25 08:58:44;;;;;;;3.97;2.92;;;27.80;91.50;;;;;;5158224;27;20400;-47
2022/08/25 09:01:14;;;;;;;5.05;2.78;;;28.00;92.10;;;;;;5139855;27;20031;-46
2022/08/25 09:03:49;;;;;;;5.43;3.03;;;28.20;91.90;;;;;;5158084;27;20043;-50
2022/08/25 09:06:38;;;;;;;4.05;2.67;;;28.30;91.60;;;;;;5139877;27;20207;-47
2022/08/25 09:09:05;;;;;;;3.80;2.63;;;28.40;91.50;;;;;;5158324;27;20050;-46
2022/08/25 09:11:35;;;;;;;;;;;28.50;91.20;;;;;;5158508;27;20043;-47
2022/08/25 09:14:28;;;;;;;3.67;2.72;;;28.60;90.40;;;;;;5157835;27;20007;-46
2022/08/25 09:17:20;;;;;;;5.10;2.80;;;28.80;90.80;;;;;;5158063;27;20072;-47
2022/08/25 09:20:05;;;;;;;3.35;2.55;;;29.00;90.00;;;;;;5157977;27;20070;-46
2022/08/25 09:22:30;;;;;;;5.72;2.30;;;28.90;88.30;;;;;;5158045;27;20070;-48
2022/08/25 09:24:58;;;;;;;4.63;2.92;;;28.80;88.00;;;;;;5157685;27;20046;-46
2022/08/25 09:27:51;;;;;;;4.95;2.40;;;28.60;87.60;;;;;;5157564;27;20534;-50
2022/08/25 09:30:19;;;;;;;3.90;2.70;;;28.70;87.20;;;;;;5158307;27;20392;-50
2022/08/25 09:33:01;;;;;;;3.25;2.40;;;29.00;87.30;;;;;;5157569;27;20053;-49
2022/08/25 09:35:31;;;;;;;6.22;2.60;;;28.90;87.20;;;;;;5139631;27;20050;-51
2022/08/25 09:38:02;;;;;;;2.95;2.63;;;29.10;88.20;;;;;;5157577;27;20532;-51
2022/08/25 09:40:32;;;;;;;3.10;2.40;;;29.30;86.50;;;;;;5157394;27;20069;-50
2022/08/25 09:43:01;;;;;;;3.38;2.92;;;29.40;85.40;;;;;;5157367;27;20476;-49
2022/08/25 09:45:42;;;;;;;6.97;2.78;;;29.50;85.20;;;;;;5139144;27;20177;-50
2022/08/25 09:48:52;;;;;;;3.40;2.40;;;29.60;85.90;;;;;;5157529;27;20045;-46
2022/08/25 09:51:34;;;;;;;4.00;2.60;;;29.80;84.10;;;;;;5144995;27;20111;-47
2022/08/25 09:54:04;;;;;;;3.88;2.35;;;29.90;84.20;;;;;;5157472;27;20053;-48
2022/08/25 09:56:32;;;;;;;3.85;2.60;;;30.00;83.80;;;;;;5157510;27;20074;-50
2022/08/25 09:59:23;;;;;;;4.38;2.42;;;29.80;83.70;;;;;;5157144;27;20492;-49
2022/08/25 10:01:52;;;;;;;5.07;2.45;;;29.90;82.20;;;;;;5156972;27;20118;-45
2022/08/25 10:04:26;;;;;;;3.95;2.70;;;29.70;82.60;;;;;;5138385;27;20046;-50
2022/08/25 10:06:52;;;;;;;3.08;2.38;;;29.70;82.70;;;;;;5156950;27;20510;-51
2022/08/25 10:09:36;;;;;;;2.88;2.45;;;29.90;80.90;;;;;;5156892;27;20464;-48
2022/08/25 10:12:23;;;;;;;5.78;2.30;;;29.90;80.90;;;;;;5156894;27;20041;-47
2022/08/25 10:14:49;;;;;;;3.85;2.05;;;30.00;81.40;;;;;;5156954;27;20480;-51
2022/08/25 10:17:25;;;;;;;3.50;2.25;;;30.00;79.60;;;;;;5156564;27;20038;-49
2022/08/25 10:20:10;;;;;;;2.60;2.20;;;29.90;79.30;;;;;;5138524;27;20125;-51
2022/08/25 10:22:41;;;;;;;5.40;2.30;;;30.10;79.10;;;;;;5120923;27;20756;-47
2022/08/25 10:25:09;;;;;;;4.45;2.10;;;30.00;76.70;;;;;;5156825;27;20042;-46
2022/08/25 10:27:46;;;;;;;3.90;2.45;;;29.90;76.10;;;;;;5156726;27;20043;-49
2022/08/25 10:30:45;;;;;;;3.10;2.00;;;30.10;78.80;;;;;;5138163;27;20078;-48
2022/08/25 10:33:11;;;;;;;2.95;2.40;;;30.30;77.70;;;;;;5156451;27;20030;-51
2022/08/25 10:35:57;;;;;;;2.35;2.15;;;30.30;76.30;;;;;;5156678;27;20054;-48
2022/08/25 10:38:28;;;;;;;3.77;2.17;;;30.50;76.90;;;;;;5156687;27;20045;-49
2022/08/25 10:41:05;;;;;;;7.65;2.55;;;30.60;76.50;;;;;;5156211;27;20130;-47
2022/08/25 10:43:41;;;;;;;;;;;30.60;76.20;;;;;;5156711;27;20054;-47
2022/08/25 10:46:19;;;;;;;3.15;2.10;;;30.70;76.80;;;;;;5156391;27;19918;-46
2022/08/25 10:48:59;;;;;;;3.85;2.28;;;30.40;76.20;;;;;;5156166;27;20492;-50
2022/08/25 10:51:48;;;;;;;4.82;2.25;;;30.50;76.00;;;;;;5156085;27;20046;-49
2022/08/25 10:54:27;;;;;;;3.72;2.08;;;30.30;75.70;;;;;;5156457;27;20103;-50
2022/08/25 10:57:22;;;;;;;4.00;2.42;;;30.30;74.30;;;;;;5156176;27;20086;-50
2022/08/25 10:59:48;;;;;;;4.78;2.50;;;30.30;74.10;;;;;;5153531;27;20100;-47
2022/08/25 11:02:45;;;;;;;4.93;2.25;;;30.40;75.70;;;;;;5143715;27;20468;-48
2022/08/25 11:05:43;;;;;;;2.20;2.00;;;30.60;74.20;;;;;;5152560;27;20054;-48
2022/08/25 11:08:27;;;;;;;3.47;2.00;;;30.50;71.50;;;;;;5117309;27;20038;-48
2022/08/25 11:11:23;;;;;;;4.22;2.25;;;30.70;74.10;;;;;;5146850;27;20386;-49
2022/08/25 11:14:00;;;;;;;3.30;2.30;;;30.70;73.70;;;;;;5150025;27;20043;-48
2022/08/25 11:16:40;;;;;;;3.90;2.65;;;30.80;74.30;;;;;;5130902;27;20393;-51
2022/08/25 11:19:32;;;;;;;2.40;2.20;;;30.80;73.50;;;;;;5147474;27;20099;-50
2022/08/25 11:22:21;;;;;;;3.95;2.50;;;30.80;73.80;;;;;;5125460;27;20519;-48
2022/08/25 11:25:05;;;;;;;3.03;2.10;;;30.70;73.20;;;;;;5145098;27;20035;-50
2022/08/25 11:27:49;;;;;;;3.97;2.10;;;31.00;73.80;;;;;;5153258;27;20096;-49
2022/08/25 11:30:17;;;;;;;4.38;2.70;;;31.00;72.00;;;;;;5151782;27;20034;-48
2022/08/25 11:32:51;;;;;;;2.22;1.98;;;31.10;70.40;;;;;;5155333;27;20447;-48
2022/08/25 11:35:39;;;;;;;3.55;2.00;;;31.00;69.50;;;;;;5151171;27;20034;-50
2022/08/25 11:38:23;;;;;;;3.70;1.90;;;31.20;70.70;;;;;;5154666;27;20556;-47
2022/08/25 11:41:10;;;;;;;3.53;1.92;;;31.20;70.10;;;;;;5148218;27;20058;-48
2022/08/25 11:43:41;;;;;;;3.03;2.10;;;31.00;70.30;;;;;;5153487;27;20106;-47
2022/08/25 11:46:16;;;;;;;2.60;1.98;;;31.20;71.80;;;;;;5155137;27;20042;-50
2022/08/25 11:49:20;;;;;;;2.20;2.00;;;31.20;69.50;;;;;;5151839;27;20035;-48
2022/08/25 11:51:47;;;;;;;2.35;1.70;;;31.00;69.00;;;;;;5152869;27;20057;-48
2022/08/25 11:54:25;;;;;;;3.63;1.75;;;31.30;69.80;;;;;;5154447;27;20043;-49
2022/08/25 11:57:05;;;;;;;2.72;1.70;;;31.20;67.80;;;;;;5155014;27;20492;-49
2022/08/25 12:00:07;;;;;;;2.15;1.95;;;31.20;68.60;;;;;;5153315;27;20046;-49
2022/08/25 12:02:38;;;;;;;2.20;1.95;;;31.40;68.80;;;;;;5140891;27;20047;-46
2022/08/25 12:05:09;;;;;;;3.03;1.90;;;31.40;67.70;;;;;;5151248;27;20500;-50
2022/08/25 12:08:37;;;;;;;3.10;2.22;;;31.50;68.40;;;;;;5153968;27;20050;-49
2022/08/25 12:11:03;;;;;;;4.43;2.10;;;31.70;69.40;;;;;;5151438;27;20074;-49
2022/08/25 12:13:46;;;;;;;1.83;1.70;;;31.50;68.10;;;;;;5135781;27;21139;-48
2022/08/25 12:16:30;;;;;;;4.63;2.20;;;31.50;67.40;;;;;;5154379;27;20441;-51
2022/08/25 12:19:24;;;;;;;4.43;1.77;;;31.60;68.50;;;;;;5115891;27;20072;-46
2022/08/25 12:21:51;;;;;;;2.22;2.00;;;31.80;67.40;;;;;;5151622;27;20045;-48
2022/08/25 12:24:19;;;;;;;;;;;31.50;66.50;;;;;;5149960;27;20034;-48
2022/08/25 12:27:08;;;;;;;3.17;2.05;;;31.40;67.30;;;;;;5154231;27;19962;-48
2022/08/25 12:29:45;;;;;;;4.38;2.35;;;31.70;68.80;;;;;;5128742;27;20050;-49
2022/08/25 12:32:28;;;;;;;2.95;2.10;;;31.70;69.50;;;;;;5153960;27;20043;-48
2022/08/25 12:35:09;;;;;;;5.38;2.40;;;31.50;68.30;;;;;;5132549;27;20130;-46
2022/08/25 12:38:00;;;;;;;5.05;2.38;;;31.50;68.50;;;;;;5151160;27;20047;-49
2022/08/25 12:40:38;;;;;;;3.63;2.17;;;31.60;70.40;;;;;;5148428;27;20496;-48
2022/08/25 12:43:18;;;;;;;5.65;1.63;;;31.70;69.70;;;;;;5153944;27;20046;-46
2022/08/25 12:45:46;;;;;;;2.40;2.20;;;31.90;66.50;;;;;;5152581;27;20047;-47
2022/08/25 12:48:26;;;;;;;7.72;2.50;;;31.80;69.90;;;;;;5152852;27;20031;-47
2022/08/25 12:51:03;;;;;;;2.92;2.53;;;31.90;69.80;;;;;;5148585;27;20042;-49
2022/08/25 12:54:00;;;;;;;3.53;2.20;;;32.00;70.40;;;;;;5153295;27;20057;-48
2022/08/25 12:56:43;;;;;;;3.53;2.50;;;32.10;70.20;;;;;;5131203;27;20062;-45
2022/08/25 12:59:12;;;;;;;3.03;2.33;;;32.10;68.90;;;;;;5150582;27;20046;-46
2022/08/25 13:02:06;;;;;;;3.50;2.42;;;32.20;69.00;;;;;;5151554;27;20337;-48
2022/08/25 13:04:56;;;;;;;4.93;2.15;;;32.20;67.70;;;;;;5152236;27;20078;-49
2022/08/25 13:07:40;;;;;;;4.45;2.30;;;32.40;68.50;;;;;;5133121;28;20099;-47
2022/08/25 13:10:32;;;;;;;2.50;2.28;;;32.50;68.90;;;;;;5138364;27;20408;-45
2022/08/25 13:13:28;;;;;;;4.05;2.40;;;32.60;69.10;;;;;;5153006;27;20035;-46